Time;durP1;ratioP1;P1;durP2;ratioP2;P2;SDS_P1;SDS_P2;PMS_P1;PMS_P2;Temp;Humidity;BMP_temperature;BMP_pressure;BME280_temperature;BME280_humidity;BME280_pressure;Samples;Min_cycle;Max_cycle;Signal;HPM_P1;HPM_P2
2022/03/12 00:00:18;;;;;;;16.70;9.60;;;;;;;;;;4976282;28;20054;-82
2022/03/12 00:02:44;;;;;;;18.65;10.50;;;;;;;;;;4981153;28;20038;-82
2022/03/12 00:05:10;;;;;;;17.55;10.50;;;;;;;;;;4976434;28;20441;-84
2022/03/12 00:07:42;;;;;;;17.10;9.52;;;;;;;;;;4979271;28;20382;-82
2022/03/12 00:10:10;;;;;;;17.43;9.77;;;;;;;;;;4972871;28;20030;-81
2022/03/12 00:12:37;;;;;;;15.10;9.75;;;;;;;;;;4980292;28;20065;-82
2022/03/12 00:15:10;;;;;;;18.55;9.45;;;;;;;;;;5013246;28;20108;-82
2022/03/12 00:17:37;;;;;;;;;;;;;;;;;;4995846;28;20045;-82
2022/03/12 00:20:12;;;;;;;15.98;9.75;;;;;;;;;;5012357;28;19928;-82
2022/03/12 00:22:41;;;;;;;15.50;9.80;;;;;;;;;;4978716;28;20060;-82
2022/03/12 00:25:07;;;;;;;17.50;9.82;;;;;;;;;;4981533;28;20033;-82
2022/03/12 00:27:32;;;;;;;15.50;9.73;;;;;;;;;;4981187;28;20022;-82
2022/03/12 00:30:00;;;;;;;14.82;10.02;;;;;;;;;;4981341;28;20720;-81
2022/03/12 00:32:26;;;;;;;17.35;9.82;;;;;;;;;;4974889;28;20069;-83
2022/03/12 00:34:52;;;;;;;17.95;9.13;;;;;;;;;;4981015;28;20037;-83
2022/03/12 00:37:18;;;;;;;19.00;9.52;;;;;;;;;;5010949;28;20081;-83
2022/03/12 00:39:47;;;;;;;14.93;9.50;;;;;;;;;;4978541;28;20529;-83
2022/03/12 00:42:13;;;;;;;16.20;9.77;;;;;;;;;;4977326;28;20081;-82
2022/03/12 00:44:38;;;;;;;17.92;9.57;;;;;;;;;;4976030;28;20526;-82
2022/03/12 00:47:04;;;;;;;16.05;9.10;;;;;;;;;;4978826;28;20026;-82
2022/03/12 00:49:29;;;;;;;15.38;9.20;;;;;;;;;;5012701;28;20034;-83
2022/03/12 00:51:55;;;;;;;21.42;9.85;;;;;;;;;;4979586;28;20116;-82
2022/03/12 00:54:21;;;;;;;16.25;9.80;;;;;;;;;;4980045;28;20719;-82
2022/03/12 00:56:46;;;;;;;16.15;9.32;;;;;;;;;;4976501;28;20030;-83
2022/03/12 00:59:12;;;;;;;15.43;9.80;;;;;;;;;;4977368;28;20322;-81
2022/03/12 01:01:37;;;;;;;15.40;8.95;;;;;;;;;;4982217;28;20084;-83
2022/03/12 01:04:03;;;;;;;20.40;9.60;;;;;;;;;;5010924;28;20042;-82
2022/03/12 01:06:28;;;;;;;16.27;9.70;;;;;;;;;;5008721;28;20141;-81
2022/03/12 01:08:54;;;;;;;14.98;10.00;;;;;;;;;;4980536;28;20026;-82
2022/03/12 01:11:19;;;;;;;15.07;9.07;;;;;;;;;;4995299;28;20061;-82
2022/03/12 01:13:44;;;;;;;16.75;9.32;;;;;;;;;;4985252;28;20108;-82
2022/03/12 01:16:10;;;;;;;16.88;9.52;;;;;;;;;;4977812;28;20169;-82
2022/03/12 01:18:39;;;;;;;16.20;10.10;;;;;;;;;;4981172;28;20034;-82
2022/03/12 01:21:16;;;;;;;17.83;10.05;;;;;;;;;;4998429;28;20749;-82
2022/03/12 01:23:42;;;;;;;15.60;9.80;;;;;;;;;;5010878;28;20123;-82
2022/03/12 01:26:09;;;;;;;20.77;9.70;;;;;;;;;;5015364;28;20669;-82
2022/03/12 01:28:35;;;;;;;19.00;10.18;;;;;;;;;;4980468;28;20026;-82
2022/03/12 01:31:00;;;;;;;16.10;9.70;;;;;;;;;;5018823;28;21045;-82
2022/03/12 01:33:25;;;;;;;15.27;9.60;;;;;;;;;;5016823;28;20631;-83
2022/03/12 01:35:51;;;;;;;15.45;9.65;;;;;;;;;;5017874;28;20040;-83
2022/03/12 01:38:16;;;;;;;20.60;9.38;;;;;;;;;;4985120;28;20045;-82
2022/03/12 01:40:41;;;;;;;15.82;9.15;;;;;;;;;;4987535;28;20042;-81
2022/03/12 01:43:07;;;;;;;17.70;10.02;;;;;;;;;;4988402;28;20034;-82
2022/03/12 01:45:35;;;;;;;15.75;9.52;;;;;;;;;;4988811;28;20117;-81
2022/03/12 01:48:03;;;;;;;14.77;9.50;;;;;;;;;;4984423;28;20113;-82
2022/03/12 01:50:35;;;;;;;16.45;10.55;;;;;;;;;;4984305;28;20063;-82
2022/03/12 01:53:04;;;;;;;19.83;10.45;;;;;;;;;;4983540;28;20120;-82
2022/03/12 01:55:30;;;;;;;13.80;9.48;;;;;;;;;;5011339;28;20036;-82
2022/03/12 01:57:58;;;;;;;21.92;10.00;;;;;;;;;;4986274;28;20105;-82
2022/03/12 02:00:26;;;;;;;17.05;9.88;;;;;;;;;;4983275;28;20038;-83
2022/03/12 02:02:54;;;;;;;18.35;10.38;;;;;;;;;;4998696;28;20037;-83
2022/03/12 02:05:27;;;;;;;16.10;9.88;;;;;;;;;;4981487;28;20026;-82
2022/03/12 02:07:55;;;;;;;16.80;10.32;;;;;;;;;;4985378;28;20033;-82
2022/03/12 02:10:20;;;;;;;15.73;10.02;;;;;;;;;;5017971;28;20037;-81
2022/03/12 02:12:46;;;;;;;15.80;9.60;;;;;;;;;;4984676;28;20034;-82
2022/03/12 02:15:11;;;;;;;17.08;10.38;;;;;;;;;;4987105;28;20427;-81
2022/03/12 02:17:38;;;;;;;15.48;10.23;;;;;;;;;;4984287;28;20026;-83
2022/03/12 02:20:05;;;;;;;15.63;9.90;;;;;;;;;;4984130;28;20120;-81
2022/03/12 02:22:31;;;;;;;17.83;10.63;;;;;;;;;;4984640;28;20042;-82
2022/03/12 02:24:56;;;;;;;19.52;10.82;;;;;;;;;;4982128;28;20037;-82
2022/03/12 02:27:25;;;;;;;14.60;9.82;;;;;;;;;;4986092;28;20036;-82
2022/03/12 02:29:59;;;;;;;18.63;10.43;;;;;;;;;;4985661;28;20094;-82
2022/03/12 02:32:24;;;;;;;;;;;;;;;;;;4987991;28;20085;-82
2022/03/12 02:34:50;;;;;;;17.73;10.60;;;;;;;;;;4987176;28;19957;-83
2022/03/12 02:37:33;;;;;;;15.80;9.80;;;;;;;;;;4985686;28;20513;-82
2022/03/12 02:40:03;;;;;;;16.30;10.30;;;;;;;;;;4983417;28;20483;-81
2022/03/12 02:42:28;;;;;;;17.83;10.73;;;;;;;;;;5013721;28;20061;-82
2022/03/12 02:44:54;;;;;;;16.30;10.25;;;;;;;;;;4984652;28;20030;-82
2022/03/12 02:47:22;;;;;;;18.05;10.32;;;;;;;;;;4982606;28;20027;-82
2022/03/12 02:49:56;;;;;;;19.60;10.85;;;;;;;;;;4985644;28;20026;-81
2022/03/12 02:52:23;;;;;;;18.30;10.50;;;;;;;;;;4983040;28;20042;-81
2022/03/12 02:54:50;;;;;;;17.60;9.85;;;;;;;;;;4983569;28;20463;-82
2022/03/12 02:57:17;;;;;;;18.25;9.82;;;;;;;;;;4985146;28;20553;-81
2022/03/12 02:59:44;;;;;;;14.38;9.32;;;;;;;;;;4986900;28;20053;-82
2022/03/12 03:02:12;;;;;;;17.90;10.68;;;;;;;;;;4983718;28;20034;-80
2022/03/12 03:04:39;;;;;;;14.55;9.90;;;;;;;;;;4986842;28;20030;-82
2022/03/12 03:07:06;;;;;;;17.45;9.90;;;;;;;;;;4987176;28;20058;-82
2022/03/12 03:09:32;;;;;;;16.92;9.90;;;;;;;;;;4984213;28;20577;-82
2022/03/12 03:12:02;;;;;;;15.40;9.45;;;;;;;;;;4985453;28;20041;-83
2022/03/12 03:14:27;;;;;;;16.17;10.07;;;;;;;;;;4986542;28;20053;-83
2022/03/12 03:16:58;;;;;;;15.88;10.25;;;;;;;;;;4983760;28;20026;-83
2022/03/12 03:19:25;;;;;;;18.48;10.15;;;;;;;;;;4984506;28;20034;-82
2022/03/12 03:22:00;;;;;;;16.85;10.38;;;;;;;;;;4980988;28;20037;-82
2022/03/12 03:24:26;;;;;;;15.90;10.30;;;;;;;;;;5012308;28;20084;-81
2022/03/12 03:26:54;;;;;;;16.25;10.10;;;;;;;;;;4983184;28;20034;-82
2022/03/12 03:29:21;;;;;;;15.68;10.40;;;;;;;;;;4987096;28;20022;-81
2022/03/12 03:31:47;;;;;;;16.27;9.98;;;;;;;;;;4984269;28;20034;-82
2022/03/12 03:34:13;;;;;;;15.10;9.88;;;;;;;;;;4982837;28;20046;-82
2022/03/12 03:36:39;;;;;;;16.05;10.02;;;;;;;;;;4983576;28;20034;-82
2022/03/12 03:39:04;;;;;;;16.73;10.23;;;;;;;;;;4981480;28;20049;-82
2022/03/12 03:41:30;;;;;;;18.38;10.05;;;;;;;;;;4984211;28;20712;-82
2022/03/12 03:43:55;;;;;;;17.92;10.02;;;;;;;;;;4981947;28;20034;-83
2022/03/12 03:46:22;;;;;;;18.52;10.05;;;;;;;;;;4982675;28;20113;-82
2022/03/12 03:48:50;;;;;;;14.40;9.63;;;;;;;;;;4985794;28;20042;-82
2022/03/12 03:51:16;;;;;;;15.63;9.77;;;;;;;;;;4980311;28;20034;-82
2022/03/12 03:53:41;;;;;;;17.08;10.13;;;;;;;;;;4984337;28;20034;-82
2022/03/12 03:56:07;;;;;;;15.77;9.80;;;;;;;;;;4984233;28;20512;-83
2022/03/12 03:58:34;;;;;;;15.38;9.93;;;;;;;;;;4981472;28;20798;-83
2022/03/12 04:01:02;;;;;;;16.10;9.68;;;;;;;;;;4977718;28;20030;-82
2022/03/12 04:03:32;;;;;;;16.92;9.57;;;;;;;;;;4983419;28;20109;-82
2022/03/12 04:06:01;;;;;;;15.32;9.55;;;;;;;;;;4986388;28;20073;-81
2022/03/12 04:08:27;;;;;;;19.85;10.10;;;;;;;;;;4984968;28;20022;-84
2022/03/12 04:10:53;;;;;;;16.63;10.35;;;;;;;;;;4984918;28;20383;-83
2022/03/12 04:13:20;;;;;;;16.75;10.00;;;;;;;;;;4980933;28;20640;-81
2022/03/12 04:15:47;;;;;;;15.93;9.70;;;;;;;;;;4985306;28;21951;-81
2022/03/12 04:18:15;;;;;;;15.48;9.32;;;;;;;;;;4983492;28;20080;-84
2022/03/12 04:20:42;;;;;;;15.68;9.70;;;;;;;;;;4984265;28;20038;-82
2022/03/12 04:23:08;;;;;;;14.38;9.32;;;;;;;;;;4981269;28;20100;-82
2022/03/12 04:25:35;;;;;;;14.43;9.18;;;;;;;;;;4985045;28;20026;-81
2022/03/12 04:28:01;;;;;;;16.02;9.18;;;;;;;;;;4984239;28;20087;-81
2022/03/12 04:30:31;;;;;;;14.45;9.35;;;;;;;;;;4980531;28;20038;-82
2022/03/12 04:32:56;;;;;;;15.05;9.52;;;;;;;;;;4983020;28;20375;-81
2022/03/12 04:35:22;;;;;;;18.45;10.10;;;;;;;;;;4982511;28;20089;-82
2022/03/12 04:37:48;;;;;;;14.65;9.52;;;;;;;;;;4997493;28;20126;-81
2022/03/12 04:40:21;;;;;;;14.23;9.20;;;;;;;;;;4981227;28;20061;-84
2022/03/12 04:42:46;;;;;;;16.08;9.40;;;;;;;;;;4998160;28;20089;-84
2022/03/12 04:45:15;;;;;;;14.98;9.43;;;;;;;;;;4983924;28;20034;-82
2022/03/12 04:47:42;;;;;;;18.08;9.90;;;;;;;;;;4982349;28;20473;-81
2022/03/12 04:50:09;;;;;;;15.15;9.80;;;;;;;;;;4983693;28;20031;-82
2022/03/12 04:52:35;;;;;;;14.75;9.50;;;;;;;;;;4984168;28;20072;-81
2022/03/12 04:55:07;;;;;;;15.25;8.93;;;;;;;;;;4983691;28;20573;-81
2022/03/12 04:57:33;;;;;;;16.30;9.43;;;;;;;;;;4981636;28;20039;-83
2022/03/12 05:00:02;;;;;;;14.52;8.85;;;;;;;;;;4984018;28;20152;-83
2022/03/12 05:02:27;;;;;;;15.10;9.35;;;;;;;;;;4981548;28;20030;-82
2022/03/12 05:04:53;;;;;;;14.52;9.45;;;;;;;;;;4982023;28;20117;-81
2022/03/12 05:07:18;;;;;;;12.95;8.77;;;;;;;;;;4982203;28;20030;-82
2022/03/12 05:09:44;;;;;;;13.52;8.77;;;;;;;;;;5014073;28;20109;-83
2022/03/12 05:12:10;;;;;;;12.93;8.55;;;;;;;;;;4979364;28;20054;-83
2022/03/12 05:14:35;;;;;;;13.93;9.00;;;;;;;;;;4986525;28;20065;-82
2022/03/12 05:17:08;;;;;;;13.73;8.77;;;;;;;;;;4985330;28;20042;-82
2022/03/12 05:19:36;;;;;;;13.90;8.70;;;;;;;;;;4982734;28;20064;-81
2022/03/12 05:22:05;;;;;;;12.57;8.05;;;;;;;;;;4980281;28;20050;-81
2022/03/12 05:24:31;;;;;;;13.65;8.60;;;;;;;;;;4980566;28;20065;-83
2022/03/12 05:26:59;;;;;;;15.75;8.50;;;;;;;;;;4979569;28;20034;-82
2022/03/12 05:29:26;;;;;;;15.00;9.15;;;;;;;;;;4976788;28;20030;-81
2022/03/12 05:31:52;;;;;;;13.70;9.23;;;;;;;;;;4981776;28;20693;-82
2022/03/12 05:34:20;;;;;;;13.18;8.38;;;;;;;;;;4981252;28;20034;-81
2022/03/12 05:36:46;;;;;;;15.07;8.52;;;;;;;;;;4980297;28;20037;-82
2022/03/12 05:39:11;;;;;;;13.95;8.52;;;;;;;;;;4980560;28;20042;-82
2022/03/12 05:41:38;;;;;;;15.50;8.38;;;;;;;;;;4976831;28;20124;-82
2022/03/12 05:44:03;;;;;;;13.43;8.48;;;;;;;;;;5008130;28;20033;-83
2022/03/12 05:46:29;;;;;;;16.05;8.98;;;;;;;;;;4973788;28;20430;-82
2022/03/12 05:48:54;;;;;;;13.52;8.43;;;;;;;;;;4978076;28;20042;-81
2022/03/12 05:51:20;;;;;;;12.95;8.30;;;;;;;;;;4978835;28;20030;-81
2022/03/12 05:53:47;;;;;;;13.80;8.60;;;;;;;;;;4979072;28;20042;-82
2022/03/12 05:56:12;;;;;;;13.50;8.55;;;;;;;;;;4980687;28;20129;-83
2022/03/12 05:58:38;;;;;;;11.60;8.00;;;;;;;;;;4978522;28;20044;-82
2022/03/12 06:01:04;;;;;;;12.93;8.18;;;;;;;;;;4977346;28;20643;-82
2022/03/12 06:03:29;;;;;;;12.45;8.00;;;;;;;;;;4975844;28;20037;-83
2022/03/12 06:05:58;;;;;;;12.88;8.43;;;;;;;;;;4991822;28;20069;-81
2022/03/12 06:08:24;;;;;;;12.07;8.18;;;;;;;;;;5005391;28;20037;-82
2022/03/12 06:10:52;;;;;;;13.38;8.48;;;;;;;;;;4984722;28;20031;-82
2022/03/12 06:13:18;;;;;;;14.10;8.82;;;;;;;;;;4979736;28;20074;-82
2022/03/12 06:15:48;;;;;;;12.60;8.07;;;;;;;;;;4984256;28;20034;-82
2022/03/12 06:18:14;;;;;;;13.30;8.32;;;;;;;;;;4984718;28;20466;-84
2022/03/12 06:20:39;;;;;;;13.40;8.45;;;;;;;;;;4982753;28;20042;-82
2022/03/12 06:23:05;;;;;;;16.02;8.43;;;;;;;;;;4984167;28;20487;-82
2022/03/12 06:25:30;;;;;;;12.68;8.38;;;;;;;;;;5014822;28;20022;-81
2022/03/12 06:27:55;;;;;;;13.88;8.77;;;;;;;;;;5009852;28;20061;-81
2022/03/12 06:30:24;;;;;;;12.50;8.05;;;;;;;;;;4980047;28;20035;-83
2022/03/12 06:32:50;;;;;;;12.93;7.93;;;;;;;;;;4979387;28;20039;-82
2022/03/12 06:35:16;;;;;;;13.65;8.25;;;;;;;;;;4998837;28;20061;-84
2022/03/12 06:37:42;;;;;;;12.38;8.20;;;;;;;;;;4978061;28;20067;-82
2022/03/12 06:40:10;;;;;;;11.80;7.70;;;;;;;;;;4981953;28;20054;-82
2022/03/12 06:42:39;;;;;;;16.20;7.55;;;;;;;;;;4982876;28;20049;-82
2022/03/12 06:45:06;;;;;;;13.82;8.30;;;;;;;;;;5014976;28;20031;-82
2022/03/12 06:47:32;;;;;;;12.43;7.68;;;;;;;;;;4999155;28;20457;-83
2022/03/12 06:49:58;;;;;;;11.32;7.32;;;;;;;;;;4983675;28;20137;-82
2022/03/12 06:52:24;;;;;;;12.07;7.35;;;;;;;;;;4984160;28;20572;-82
2022/03/12 06:54:51;;;;;;;10.93;7.30;;;;;;;;;;5011940;28;20517;-84
2022/03/12 06:57:17;;;;;;;11.50;7.32;;;;;;;;;;5011809;28;20687;-82
2022/03/12 06:59:42;;;;;;;11.25;7.20;;;;;;;;;;4984450;28;20049;-82
2022/03/12 07:02:08;;;;;;;12.60;7.35;;;;;;;;;;4984396;28;20038;-81
2022/03/12 07:04:34;;;;;;;11.32;7.55;;;;;;;;;;4980215;28;20045;-82
2022/03/12 07:07:01;;;;;;;10.70;7.35;;;;;;;;;;4982655;28;20061;-83
2022/03/12 07:09:26;;;;;;;10.85;6.53;;;;;;;;;;4982813;28;20042;-82
2022/03/12 07:11:54;;;;;;;13.13;7.85;;;;;;;;;;4985873;28;20353;-82
2022/03/12 07:14:20;;;;;;;11.00;7.40;;;;;;;;;;4978524;28;20529;-82
2022/03/12 07:16:45;;;;;;;10.35;6.93;;;;;;;;;;4992003;28;20042;-82
2022/03/12 07:19:10;;;;;;;11.15;7.63;;;;;;;;;;4980534;28;20031;-83
2022/03/12 07:21:37;;;;;;;12.77;6.95;;;;;;;;;;4981229;28;20027;-81
2022/03/12 07:24:02;;;;;;;11.55;6.95;;;;;;;;;;5011241;28;20367;-82
2022/03/12 07:26:27;;;;;;;11.05;7.43;;;;;;;;;;4981440;28;20034;-81
2022/03/12 07:28:53;;;;;;;10.30;7.15;;;;;;;;;;4980895;28;20030;-81
2022/03/12 07:31:20;;;;;;;10.48;6.90;;;;;;;;;;4986126;28;20471;-82
2022/03/12 07:33:45;;;;;;;9.98;6.25;;;;;;;;;;5014667;28;20129;-81
2022/03/12 07:36:11;;;;;;;10.80;7.22;;;;;;;;;;4978028;28;20113;-82
2022/03/12 07:38:36;;;;;;;9.35;6.60;;;;;;;;;;4978722;28;20050;-81
2022/03/12 07:41:02;;;;;;;12.02;7.50;;;;;;;;;;4981044;28;20051;-83
2022/03/12 07:43:27;;;;;;;10.20;6.90;;;;;;;;;;4989022;28;20035;-81
2022/03/12 07:45:53;;;;;;;12.23;6.88;;;;;;;;;;4991036;28;20026;-84
2022/03/12 07:48:18;;;;;;;11.88;7.30;;;;;;;;;;4978726;28;20518;-81
2022/03/12 07:50:44;;;;;;;12.77;7.47;;;;;;;;;;5007429;28;20018;-83
2022/03/12 07:53:11;;;;;;;9.82;6.90;;;;;;;;;;4977381;28;20034;-80
2022/03/12 07:55:37;;;;;;;11.80;7.55;;;;;;;;;;4976329;28;20066;-81
2022/03/12 07:58:02;;;;;;;10.60;6.80;;;;;;;;;;5007633;28;20594;-81
2022/03/12 08:00:29;;;;;;;11.23;7.05;;;;;;;;;;4977695;28;20511;-84
2022/03/12 08:02:55;;;;;;;11.88;7.28;;;;;;;;;;5006794;28;20462;-81
2022/03/12 08:05:23;;;;;;;8.90;6.50;;;;;;;;;;4983090;28;20030;-80
2022/03/12 08:07:50;;;;;;;11.05;6.97;;;;;;;;;;4975753;28;20037;-80
2022/03/12 08:10:16;;;;;;;11.13;7.40;;;;;;;;;;4983254;28;20458;-81
2022/03/12 08:12:43;;;;;;;13.73;9.20;;;;;;;;;;4979686;28;20033;-83
2022/03/12 08:15:11;;;;;;;14.15;9.00;;;;;;;;;;4978880;28;20041;-84
2022/03/12 08:17:36;;;;;;;12.48;9.18;;;;;;;;;;4981138;28;20034;-83
2022/03/12 08:20:05;;;;;;;13.50;7.88;;;;;;;;;;4975801;28;20085;-82
2022/03/12 08:22:30;;;;;;;13.27;7.70;;;;;;;;;;4982495;28;20079;-82
2022/03/12 08:24:55;;;;;;;11.10;7.55;;;;;;;;;;5011698;28;20042;-81
2022/03/12 08:27:21;;;;;;;10.00;7.03;;;;;;;;;;4981590;28;20058;-82
2022/03/12 08:29:46;;;;;;;9.52;6.95;;;;;;;;;;4979315;28;20041;-81
2022/03/12 08:32:12;;;;;;;10.18;6.90;;;;;;;;;;4978074;28;20858;-82
2022/03/12 08:34:37;;;;;;;8.73;6.25;;;;;;;;;;4973761;28;20034;-81
2022/03/12 08:37:04;;;;;;;10.27;6.15;;;;;;;;;;4981126;28;20091;-83
2022/03/12 08:39:30;;;;;;;11.95;6.57;;;;;;;;;;5004440;28;20833;-83
2022/03/12 08:41:55;;;;;;;9.63;6.10;;;;;;;;;;4979663;28;20050;-82
2022/03/12 08:44:21;;;;;;;10.23;6.15;;;;;;;;;;4983300;28;20482;-83
2022/03/12 08:46:47;;;;;;;11.90;6.32;;;;;;;;;;5005598;28;20030;-83
2022/03/12 08:49:12;;;;;;;11.48;5.88;;;;;;;;;;4974809;28;20049;-82
2022/03/12 08:51:38;;;;;;;8.63;5.25;;;;;;;;;;5009445;28;20490;-83
2022/03/12 08:54:05;;;;;;;8.98;5.80;;;;;;;;;;5006643;28;20399;-81
2022/03/12 08:56:31;;;;;;;8.30;5.30;;;;;;;;;;5006553;28;20027;-81
2022/03/12 08:58:57;;;;;;;7.18;5.15;;;;;;;;;;4991785;28;20046;-82
2022/03/12 09:01:22;;;;;;;7.18;5.03;;;;;;;;;;4980991;28;20041;-81
2022/03/12 09:03:48;;;;;;;8.30;5.10;;;;;;;;;;4993216;28;20658;-81
2022/03/12 09:06:15;;;;;;;7.88;5.03;;;;;;;;;;4977368;28;20046;-83
2022/03/12 09:08:41;;;;;;;10.07;4.90;;;;;;;;;;4993267;28;20066;-81
2022/03/12 09:11:06;;;;;;;11.15;5.20;;;;;;;;;;4992970;28;20072;-81
2022/03/12 09:13:32;;;;;;;9.50;5.10;;;;;;;;;;4982157;28;20104;-81
2022/03/12 09:15:58;;;;;;;8.35;5.20;;;;;;;;;;4981776;28;20026;-84
2022/03/12 09:18:24;;;;;;;9.70;5.25;;;;;;;;;;4973964;28;20038;-82
2022/03/12 09:20:49;;;;;;;7.57;4.95;;;;;;;;;;5016223;28;20027;-83
2022/03/12 09:23:21;;;;;;;8.10;5.13;;;;;;;;;;5011461;28;20499;-84
2022/03/12 09:25:47;;;;;;;8.23;5.05;;;;;;;;;;5019978;28;20026;-83
2022/03/12 09:28:14;;;;;;;8.77;5.40;;;;;;;;;;4980442;28;20041;-82
2022/03/12 09:30:40;;;;;;;8.05;4.65;;;;;;;;;;5013351;28;20036;-83
2022/03/12 09:33:09;;;;;;;8.32;5.25;;;;;;;;;;4985401;28;20018;-86
2022/03/12 09:35:38;;;;;;;7.20;5.05;;;;;;;;;;4982857;28;20042;-83
2022/03/12 09:38:04;;;;;;;8.75;5.53;;;;;;;;;;5014903;28;20034;-81
2022/03/12 09:40:32;;;;;;;9.23;4.93;;;;;;;;;;4981159;28;20120;-81
2022/03/12 09:42:58;;;;;;;9.57;5.00;;;;;;;;;;4979177;28;20026;-82
2022/03/12 09:45:25;;;;;;;8.30;5.20;;;;;;;;;;4982176;28;20066;-81
2022/03/12 09:47:51;;;;;;;8.80;4.90;;;;;;;;;;4982845;28;20049;-82
2022/03/12 09:50:17;;;;;;;7.15;4.90;;;;;;;;;;4995417;28;20065;-81
2022/03/12 09:52:43;;;;;;;9.52;5.15;;;;;;;;;;5000289;28;20058;-82
2022/03/12 09:55:10;;;;;;;7.78;5.38;;;;;;;;;;4982951;28;20038;-83
2022/03/12 09:57:36;;;;;;;9.02;5.47;;;;;;;;;;4986452;28;20062;-84
2022/03/12 10:00:09;;;;;;;10.85;5.30;;;;;;;;;;4986688;28;20034;-81
2022/03/12 10:02:35;;;;;;;9.30;5.43;;;;;;;;;;4985296;28;20593;-81
2022/03/12 10:05:00;;;;;;;10.05;5.00;;;;;;;;;;4966170;28;20050;-84
2022/03/12 10:07:31;;;;;;;9.93;5.13;;;;;;;;;;4988223;28;20061;-83
2022/03/12 10:10:17;;;;;;;9.45;4.70;;;;;;;;;;4985679;28;20042;-83
2022/03/12 10:12:44;;;;;;;7.35;3.75;;;;;;;;;;5002212;28;20030;-83
2022/03/12 10:15:18;;;;;;;9.73;3.78;;;;;;;;;;4988209;28;20030;-83
2022/03/12 10:17:47;;;;;;;5.85;3.50;;;;;;;;;;4988869;28;20038;-83
2022/03/12 10:20:14;;;;;;;8.48;4.05;;;;;;;;;;4986375;28;20033;-85
2022/03/12 10:22:49;;;;;;;7.15;3.40;;;;;;;;;;4990638;28;20026;-85
2022/03/12 10:25:15;;;;;;;5.80;2.90;;;;;;;;;;4988785;28;20030;-84
2022/03/12 10:27:47;;;;;;;7.75;2.47;;;;;;;;;;4989986;28;20024;-83
2022/03/12 10:30:19;;;;;;;5.55;2.38;;;;;;;;;;4987781;28;20034;-84
2022/03/12 10:32:48;;;;;;;5.97;2.50;;;;;;;;;;4987809;28;20552;-84
2022/03/12 10:35:19;;;;;;;8.05;2.60;;;;;;;;;;4985726;28;20034;-84
2022/03/12 10:37:49;;;;;;;5.88;2.47;;;;;;;;;;4984391;28;20026;-85
2022/03/12 10:40:30;;;;;;;9.18;2.53;;;;;;;;;;4982292;28;20054;-84
2022/03/12 10:43:12;;;;;;;7.00;2.65;;;;;;;;;;5020198;28;20038;-83
2022/03/12 10:45:54;;;;;;;8.43;2.80;;;;;;;;;;4991040;28;20176;-83
2022/03/12 10:48:20;;;;;;;5.68;2.60;;;;;;;;;;4989598;28;20026;-82
2022/03/12 10:50:50;;;;;;;4.45;2.40;;;;;;;;;;4988932;28;20541;-83
2022/03/12 10:53:19;;;;;;;6.10;2.72;;;;;;;;;;5002270;28;20030;-83
2022/03/12 10:55:51;;;;;;;8.70;2.53;;;;;;;;;;4990496;28;20135;-83
2022/03/12 10:58:21;;;;;;;8.68;3.17;;;;;;;;;;4986004;28;20032;-82
2022/03/12 11:00:59;;;;;;;6.95;2.75;;;;;;;;;;4990937;28;20034;-84
2022/03/12 11:03:29;;;;;;;7.93;3.20;;;;;;;;;;4988680;28;20029;-84
2022/03/12 11:05:56;;;;;;;6.90;2.83;;;;;;;;;;4988535;28;20061;-84
2022/03/12 11:08:34;;;;;;;5.38;2.80;;;;;;;;;;4991352;28;20038;-83
2022/03/12 11:11:01;;;;;;;5.07;2.40;;;;;;;;;;4992237;28;20019;-85
2022/03/12 11:13:58;;;;;;;5.63;2.65;;;;;;;;;;5007970;28;20034;-83
2022/03/12 11:16:32;;;;;;;6.68;2.67;;;;;;;;;;4992527;28;20062;-81
2022/03/12 11:19:53;;;;;;;;;;;;;;;;;;;;;
2022/03/12 11:22:19;;;;;;;6.90;2.50;;;;;;;;;;4981967;28;20019;-84
2022/03/12 11:24:54;;;;;;;4.72;2.42;;;;;;;;;;4988095;28;20475;-84
2022/03/12 11:27:32;;;;;;;7.65;2.30;;;;;;;;;;4990100;28;20034;-82
2022/03/12 11:30:00;;;;;;;5.55;2.30;;;;;;;;;;5012379;28;20541;-83
2022/03/12 11:32:28;;;;;;;7.30;2.42;;;;;;;;;;4998710;28;20554;-83
2022/03/12 11:35:11;;;;;;;7.22;2.47;;;;;;;;;;4984601;28;20046;-84
2022/03/12 11:37:38;;;;;;;8.73;2.40;;;;;;;;;;4979582;28;20577;-84
2022/03/12 11:40:11;;;;;;;7.35;2.30;;;;;;;;;;5017410;28;20080;-84
2022/03/12 11:42:39;;;;;;;5.80;2.15;;;;;;;;;;4985328;28;20050;-83
2022/03/12 11:45:14;;;;;;;5.10;2.33;;;;;;;;;;4987693;28;20034;-84
2022/03/12 11:47:40;;;;;;;5.55;2.80;;;;;;;;;;4985993;28;20038;-84
2022/03/12 11:50:16;;;;;;;6.85;2.78;;;;;;;;;;4982783;28;22025;-83
2022/03/12 11:52:46;;;;;;;5.28;2.47;;;;;;;;;;4977723;28;20035;-83
2022/03/12 11:55:17;;;;;;;5.65;2.10;;;;;;;;;;5014546;28;20038;-84
2022/03/12 11:57:44;;;;;;;5.72;2.10;;;;;;;;;;4984951;28;20034;-82
2022/03/12 12:00:18;;;;;;;5.07;2.40;;;;;;;;;;4981623;28;20057;-84
2022/03/12 12:02:43;;;;;;;5.20;2.13;;;;;;;;;;4983166;28;20490;-83
2022/03/12 12:05:12;;;;;;;12.52;2.70;;;;;;;;;;4980868;28;20084;-85
2022/03/12 12:07:41;;;;;;;5.05;2.20;;;;;;;;;;4974951;28;20110;-83
2022/03/12 12:10:08;;;;;;;5.20;2.10;;;;;;;;;;4982661;28;20026;-84
2022/03/12 12:12:34;;;;;;;4.53;2.47;;;;;;;;;;4986041;28;20029;-83
2022/03/12 12:15:04;;;;;;;6.47;2.50;;;;;;;;;;4979511;28;20478;-83
2022/03/12 12:17:33;;;;;;;6.93;2.58;;;;;;;;;;5013234;28;20928;-83
2022/03/12 12:19:59;;;;;;;6.43;2.25;;;;;;;;;;4986090;28;20037;-85
2022/03/12 12:22:26;;;;;;;6.45;2.10;;;;;;;;;;4982523;28;20038;-83
2022/03/12 12:24:53;;;;;;;7.15;2.03;;;;;;;;;;5009736;28;20030;-84
2022/03/12 12:27:23;;;;;;;4.53;1.75;;;;;;;;;;4986475;28;20076;-83
2022/03/12 12:29:54;;;;;;;8.15;2.88;;;;;;;;;;4982676;28;20058;-84
2022/03/12 12:32:22;;;;;;;6.82;2.35;;;;;;;;;;5015703;28;20022;-83
2022/03/12 12:35:02;;;;;;;3.40;1.67;;;;;;;;;;4980029;28;20077;-82
2022/03/12 12:37:54;;;;;;;5.82;1.98;;;;;;;;;;4982154;28;20034;-84
2022/03/12 12:40:21;;;;;;;5.78;1.90;;;;;;;;;;4978550;28;20154;-81
2022/03/12 12:42:49;;;;;;;4.78;2.05;;;;;;;;;;4983351;28;20054;-82
2022/03/12 12:45:17;;;;;;;7.13;2.25;;;;;;;;;;4982150;28;20120;-82
2022/03/12 12:47:43;;;;;;;5.57;1.92;;;;;;;;;;5010268;28;20038;-82
2022/03/12 12:50:24;;;;;;;5.82;2.10;;;;;;;;;;5012328;28;20037;-83
2022/03/12 12:53:16;;;;;;;6.28;2.03;;;;;;;;;;4983057;28;20032;-82
2022/03/12 12:55:44;;;;;;;6.68;1.77;;;;;;;;;;4981707;28;20068;-80
2022/03/12 12:58:10;;;;;;;5.43;1.73;;;;;;;;;;4984163;28;20057;-83
2022/03/12 13:00:37;;;;;;;5.50;1.83;;;;;;;;;;4981130;28;20065;-82
2022/03/12 13:03:11;;;;;;;5.25;1.70;;;;;;;;;;4983519;28;20026;-83
2022/03/12 13:05:59;;;;;;;5.22;1.90;;;;;;;;;;4983314;28;20034;-82
2022/03/12 13:08:46;;;;;;;7.88;1.92;;;;;;;;;;4984915;28;20042;-85
2022/03/12 13:11:28;;;;;;;6.40;1.70;;;;;;;;;;4982668;28;20026;-85
2022/03/12 13:13:59;;;;;;;9.90;2.45;;;;;;;;;;4982891;28;20030;-84
2022/03/12 13:16:25;;;;;;;7.00;1.80;;;;;;;;;;5016440;28;20092;-83
2022/03/12 13:18:51;;;;;;;4.10;1.70;;;;;;;;;;4998709;28;20035;-84
2022/03/12 13:21:28;;;;;;;7.07;2.08;;;;;;;;;;4980365;28;20045;-84
2022/03/12 13:23:53;;;;;;;6.05;1.83;;;;;;;;;;5014317;28;20032;-84
2022/03/12 13:26:20;;;;;;;6.07;1.85;;;;;;;;;;4986719;28;20038;-84
2022/03/12 13:28:51;;;;;;;6.68;1.90;;;;;;;;;;4995611;28;20030;-86
2022/03/12 13:31:24;;;;;;;6.50;2.03;;;;;;;;;;4996143;28;20065;-84
2022/03/12 13:33:58;;;;;;;6.50;1.80;;;;;;;;;;4983179;28;20121;-86
2022/03/12 13:36:30;;;;;;;5.05;1.63;;;;;;;;;;4996777;28;20402;-85
2022/03/12 13:38:57;;;;;;;4.82;1.83;;;;;;;;;;4985381;28;20650;-84
2022/03/12 13:41:23;;;;;;;7.97;2.55;;;;;;;;;;4981782;28;20057;-83
2022/03/12 13:43:54;;;;;;;5.18;1.80;;;;;;;;;;5016619;28;20034;-84
2022/03/12 13:46:30;;;;;;;5.15;1.60;;;;;;;;;;4985730;28;20388;-84
2022/03/12 13:49:04;;;;;;;5.93;1.75;;;;;;;;;;5009392;28;20037;-83
2022/03/12 13:51:31;;;;;;;5.00;1.60;;;;;;;;;;4978976;28;20623;-83
2022/03/12 13:53:58;;;;;;;6.03;1.60;;;;;;;;;;4988530;28;20065;-79
2022/03/12 13:56:24;;;;;;;4.95;1.90;;;;;;;;;;4991874;28;20054;-80
2022/03/12 13:58:51;;;;;;;6.22;1.92;;;;;;;;;;4990941;28;20482;-83
2022/03/12 14:01:31;;;;;;;5.57;1.55;;;;;;;;;;4991930;28;20655;-81
2022/03/12 14:03:58;;;;;;;6.47;1.75;;;;;;;;;;4993056;28;20037;-82
2022/03/12 14:06:40;;;;;;;5.45;1.85;;;;;;;;;;4987640;28;20079;-81
2022/03/12 14:09:09;;;;;;;6.07;1.90;;;;;;;;;;4984049;28;20030;-80
2022/03/12 14:11:49;;;;;;;5.47;1.65;;;;;;;;;;4985950;28;20030;-81
2022/03/12 14:14:20;;;;;;;5.43;1.90;;;;;;;;;;5000152;28;20038;-82
2022/03/12 14:16:53;;;;;;;4.97;1.50;;;;;;;;;;4988124;28;20092;-87
2022/03/12 14:19:20;;;;;;;8.43;2.08;;;;;;;;;;4989116;28;20033;-80
2022/03/12 14:21:48;;;;;;;6.13;1.95;;;;;;;;;;4986237;28;20058;-82
2022/03/12 14:24:22;;;;;;;5.20;2.17;;;;;;;;;;5020673;28;20045;-84
2022/03/12 14:26:52;;;;;;;5.03;1.70;;;;;;;;;;4988485;28;20041;-82
2022/03/12 14:29:25;;;;;;;6.63;2.30;;;;;;;;;;4989219;28;20073;-84
2022/03/12 14:31:53;;;;;;;6.07;1.58;;;;;;;;;;4984229;28;20039;-83
2022/03/12 14:34:20;;;;;;;4.25;1.70;;;;;;;;;;4987809;28;20030;-82
2022/03/12 14:36:46;;;;;;;7.35;2.00;;;;;;;;;;4982935;28;20026;-80
2022/03/12 14:39:14;;;;;;;3.85;1.58;;;;;;;;;;5017257;28;20104;-81
2022/03/12 14:41:41;;;;;;;11.70;1.83;;;;;;;;;;5016462;28;20464;-80